Time;durP1;ratioP1;P1;durP2;ratioP2;P2;SDS_P1;SDS_P2;PMS_P1;PMS_P2;Temp;Humidity;BMP_temperature;BMP_pressure;BME280_temperature;BME280_humidity;BME280_pressure;Samples;Min_cycle;Max_cycle;Signal;HPM_P1;HPM_P2
2021/12/20 00:01:50;;;;;;;25.77;3.08;;;;;;;;;;5041327;28;20044;-73
2021/12/20 00:04:16;;;;;;;34.63;4.55;;;;;;;;;;5053990;28;20434;-74
2021/12/20 00:06:42;;;;;;;30.40;3.80;;;;;;;;;;5041489;28;20025;-74
2021/12/20 00:09:08;;;;;;;27.27;4.97;;;;;;;;;;5027685;28;20106;-74
2021/12/20 00:11:34;;;;;;;21.33;3.47;;;;;;;;;;5040201;28;20486;-73
2021/12/20 00:14:01;;;;;;;34.38;6.75;;;;;;;;;;5040067;28;20088;-73
2021/12/20 00:16:27;;;;;;;31.25;4.32;;;;;;;;;;5040136;28;20029;-73
2021/12/20 00:18:53;;;;;;;27.63;3.67;;;;;;;;;;5040907;28;20460;-72
2021/12/20 00:21:19;;;;;;;31.90;4.68;;;;;;;;;;5038878;28;20055;-72
2021/12/20 00:23:45;;;;;;;29.75;4.13;;;;;;;;;;5042734;28;20105;-74
2021/12/20 00:26:11;;;;;;;34.25;4.07;;;;;;;;;;5042998;28;20111;-73
2021/12/20 00:28:38;;;;;;;38.63;4.38;;;;;;;;;;5059537;28;20495;-74
2021/12/20 00:31:04;;;;;;;33.17;4.80;;;;;;;;;;5038679;28;20033;-74
2021/12/20 00:33:33;;;;;;;36.08;4.07;;;;;;;;;;5041722;28;20041;-74
2021/12/20 00:36:04;;;;;;;33.47;4.47;;;;;;;;;;5041482;28;20033;-74
2021/12/20 00:41:15;;;;;;;36.42;5.35;;;;;;;;;;5039111;28;20137;-74
2021/12/20 00:43:41;;;;;;;31.27;3.83;;;;;;;;;;5038815;28;20041;-74
2021/12/20 00:46:07;;;;;;;39.72;5.45;;;;;;;;;;5036759;28;20211;-74
2021/12/20 00:48:33;;;;;;;35.10;4.80;;;;;;;;;;5041123;28;20495;-74
2021/12/20 00:50:59;;;;;;;36.67;4.03;;;;;;;;;;5038242;28;20029;-72
2021/12/20 00:53:25;;;;;;;33.97;4.78;;;;;;;;;;5042106;28;20159;-73
2021/12/20 00:55:51;;;;;;;36.75;6.18;;;;;;;;;;5042510;28;20119;-73
2021/12/20 00:58:17;;;;;;;39.13;4.43;;;;;;;;;;5038302;28;20037;-73
2021/12/20 01:00:45;;;;;;;34.40;3.75;;;;;;;;;;5040077;28;20059;-73
2021/12/20 01:03:11;;;;;;;34.08;4.22;;;;;;;;;;5040913;28;20033;-73
2021/12/20 01:05:41;;;;;;;29.30;4.20;;;;;;;;;;5042860;28;20117;-73
2021/12/20 01:08:07;;;;;;;23.40;3.97;;;;;;;;;;5036182;28;20060;-73
2021/12/20 01:10:35;;;;;;;25.80;3.80;;;;;;;;;;5057975;28;20028;-72
2021/12/20 01:13:02;;;;;;;36.78;4.90;;;;;;;;;;5042558;28;20047;-73
2021/12/20 01:15:47;;;;;;;32.08;4.72;;;;;;;;;;5039742;28;20041;-72
2021/12/20 01:18:14;;;;;;;35.28;4.70;;;;;;;;;;5039479;28;20049;-73
2021/12/20 01:20:41;;;;;;;29.58;4.90;;;;;;;;;;5040355;28;20510;-72
2021/12/20 01:23:08;;;;;;;28.13;3.70;;;;;;;;;;5042559;28;20061;-73
2021/12/20 01:25:34;;;;;;;35.97;5.55;;;;;;;;;;5022577;28;20044;-73
2021/12/20 01:28:00;;;;;;;40.03;7.13;;;;;;;;;;5040370;28;20112;-72
2021/12/20 01:30:28;;;;;;;43.80;6.28;;;;;;;;;;5040653;28;20033;-73
2021/12/20 01:32:54;;;;;;;27.40;4.18;;;;;;;;;;5042013;28;20021;-72
2021/12/20 01:35:22;;;;;;;44.30;5.22;;;;;;;;;;5040258;28;20036;-73
2021/12/20 01:37:48;;;;;;;42.95;6.38;;;;;;;;;;5042146;28;20022;-73
2021/12/20 01:40:16;;;;;;;30.77;3.88;;;;;;;;;;5037215;28;20085;-73
2021/12/20 01:42:42;;;;;;;33.50;4.53;;;;;;;;;;5039052;28;20334;-72
2021/12/20 01:45:13;;;;;;;34.85;4.80;;;;;;;;;;5042424;28;20082;-73
2021/12/20 01:47:43;;;;;;;;;;;;;;;;;;5043708;28;20048;-73
2021/12/20 01:50:17;;;;;;;43.45;4.47;;;;;;;;;;5041257;28;19916;-73
2021/12/20 01:52:44;;;;;;;29.73;4.68;;;;;;;;;;5045583;28;20127;-73
2021/12/20 01:55:18;;;;;;;35.85;4.97;;;;;;;;;;5043407;28;20133;-73
2021/12/20 01:57:45;;;;;;;40.92;5.28;;;;;;;;;;5045366;28;20029;-73
2021/12/20 02:00:19;;;;;;;31.45;3.53;;;;;;;;;;5040666;28;20052;-72
2021/12/20 02:02:45;;;;;;;35.58;4.30;;;;;;;;;;5036591;28;20388;-72
2021/12/20 02:05:19;;;;;;;41.35;7.13;;;;;;;;;;5057810;28;20039;-72
2021/12/20 02:10:15;;;;;;;49.10;5.30;;;;;;;;;;5045577;28;20041;-74
2021/12/20 02:12:41;;;;;;;33.38;4.43;;;;;;;;;;5044210;28;20462;-74
2021/12/20 02:15:07;;;;;;;33.88;4.53;;;;;;;;;;5041391;28;20033;-74
2021/12/20 02:17:33;;;;;;;43.70;4.47;;;;;;;;;;5046561;28;20036;-73
2021/12/20 02:20:00;;;;;;;37.45;5.30;;;;;;;;;;5059283;28;20029;-73
2021/12/20 02:22:26;;;;;;;41.72;4.88;;;;;;;;;;5039369;28;20455;-73
2021/12/20 02:24:52;;;;;;;35.35;4.03;;;;;;;;;;5045190;28;20033;-73
2021/12/20 02:27:19;;;;;;;33.00;3.50;;;;;;;;;;5039418;28;20179;-73
2021/12/20 02:30:01;;;;;;;29.63;4.20;;;;;;;;;;5043579;28;20497;-74
2021/12/20 02:37:56;;;;;;;35.58;5.30;;;;;;;;;;5042020;28;20128;-73
2021/12/20 02:40:23;;;;;;;44.60;5.25;;;;;;;;;;5043356;28;20149;-73
2021/12/20 02:42:51;;;;;;;32.70;5.07;;;;;;;;;;5044807;28;20032;-73
2021/12/20 02:45:17;;;;;;;24.75;3.92;;;;;;;;;;5043102;28;20029;-72
2021/12/20 02:47:45;;;;;;;37.67;4.20;;;;;;;;;;5044600;28;20083;-72
2021/12/20 02:50:11;;;;;;;31.80;5.03;;;;;;;;;;5043388;28;20040;-74
2021/12/20 02:52:38;;;;;;;38.33;4.65;;;;;;;;;;5044484;28;20040;-75
2021/12/20 02:55:05;;;;;;;36.85;4.00;;;;;;;;;;5041982;28;20021;-74
2021/12/20 02:57:33;;;;;;;40.10;4.95;;;;;;;;;;5037967;28;20212;-73
2021/12/20 02:59:59;;;;;;;31.25;5.03;;;;;;;;;;5046835;28;20063;-74
2021/12/20 03:02:25;;;;;;;29.85;4.45;;;;;;;;;;5044088;28;20025;-74
2021/12/20 03:04:52;;;;;;;34.92;6.05;;;;;;;;;;5044322;28;20105;-73
2021/12/20 03:07:23;;;;;;;32.30;5.40;;;;;;;;;;5053756;28;20572;-73
2021/12/20 03:09:54;;;;;;;35.80;4.53;;;;;;;;;;5046158;28;20481;-73
2021/12/20 03:12:23;;;;;;;31.17;4.43;;;;;;;;;;5042517;28;20029;-72
2021/12/20 03:14:51;;;;;;;36.40;5.32;;;;;;;;;;5044688;28;20556;-73
2021/12/20 03:17:17;;;;;;;26.08;3.78;;;;;;;;;;5040453;28;20033;-73
2021/12/20 03:19:43;;;;;;;30.20;4.30;;;;;;;;;;5042985;28;20029;-73
2021/12/20 03:22:10;;;;;;;37.50;4.25;;;;;;;;;;5039946;28;20025;-74
2021/12/20 03:24:36;;;;;;;34.03;5.30;;;;;;;;;;5045547;28;20026;-72
2021/12/20 03:27:03;;;;;;;32.65;3.92;;;;;;;;;;5044519;28;20048;-73
2021/12/20 03:29:29;;;;;;;34.70;4.97;;;;;;;;;;5058363;28;20095;-73
2021/12/20 03:31:55;;;;;;;38.03;4.68;;;;;;;;;;5039925;28;20055;-73
2021/12/20 03:34:21;;;;;;;34.60;4.10;;;;;;;;;;5045066;28;20032;-72
2021/12/20 03:36:47;;;;;;;36.70;5.70;;;;;;;;;;5041156;28;20079;-73
2021/12/20 03:39:14;;;;;;;24.63;4.55;;;;;;;;;;5040966;28;20029;-72
2021/12/20 03:41:40;;;;;;;40.30;4.70;;;;;;;;;;5040928;28;20096;-73
2021/12/20 03:44:07;;;;;;;39.58;6.53;;;;;;;;;;5042578;28;20036;-74
2021/12/20 03:46:33;;;;;;;39.95;5.50;;;;;;;;;;5041373;28;20415;-73
2021/12/20 03:48:59;;;;;;;40.22;5.57;;;;;;;;;;5040781;28;20065;-73
2021/12/20 03:51:26;;;;;;;40.35;5.13;;;;;;;;;;5037678;28;20520;-74
2021/12/20 03:53:52;;;;;;;32.22;5.07;;;;;;;;;;5058912;28;20072;-74
2021/12/20 03:56:18;;;;;;;29.55;3.95;;;;;;;;;;5038725;28;20523;-74
2021/12/20 03:58:44;;;;;;;24.23;4.38;;;;;;;;;;5060064;28;20525;-74
2021/12/20 04:01:11;;;;;;;29.55;4.47;;;;;;;;;;5041762;28;20025;-74
2021/12/20 04:03:41;;;;;;;26.80;3.35;;;;;;;;;;5039039;28;20018;-74
2021/12/20 04:06:09;;;;;;;31.60;4.78;;;;;;;;;;5058027;28;20442;-72
2021/12/20 04:08:35;;;;;;;38.88;4.53;;;;;;;;;;5039882;28;20028;-74
2021/12/20 04:11:01;;;;;;;30.15;3.35;;;;;;;;;;5040332;28;20037;-73
2021/12/20 04:13:27;;;;;;;35.78;4.82;;;;;;;;;;5041669;28;20041;-73
2021/12/20 04:15:54;;;;;;;32.78;5.28;;;;;;;;;;5041475;28;20033;-73
2021/12/20 04:18:20;;;;;;;31.13;4.05;;;;;;;;;;5039429;28;20087;-73
2021/12/20 04:20:46;;;;;;;31.95;4.85;;;;;;;;;;5040868;28;20025;-73
2021/12/20 04:23:13;;;;;;;23.70;3.60;;;;;;;;;;5036320;28;20025;-73
2021/12/20 04:25:39;;;;;;;30.42;3.58;;;;;;;;;;5039711;28;20100;-73
2021/12/20 04:28:05;;;;;;;27.67;3.97;;;;;;;;;;5043084;28;20029;-73
2021/12/20 04:30:32;;;;;;;28.60;4.13;;;;;;;;;;5040602;28;20077;-73
2021/12/20 04:32:58;;;;;;;27.73;3.83;;;;;;;;;;5039344;28;20029;-74
2021/12/20 04:35:24;;;;;;;32.10;5.40;;;;;;;;;;5039963;28;20105;-73
2021/12/20 04:37:51;;;;;;;27.08;4.38;;;;;;;;;;5040653;28;20549;-73
2021/12/20 04:40:20;;;;;;;36.33;4.43;;;;;;;;;;5039311;28;20045;-73
2021/12/20 04:42:47;;;;;;;24.35;3.67;;;;;;;;;;5042533;28;20052;-72
2021/12/20 04:45:13;;;;;;;32.80;3.53;;;;;;;;;;5042883;28;20028;-73
2021/12/20 04:47:39;;;;;;;43.97;5.80;;;;;;;;;;5056771;28;20059;-73
2021/12/20 04:50:06;;;;;;;35.20;4.72;;;;;;;;;;5038234;28;20495;-73
2021/12/20 04:52:32;;;;;;;34.15;3.70;;;;;;;;;;5040443;28;20509;-73
2021/12/20 04:54:58;;;;;;;37.00;4.70;;;;;;;;;;5041774;28;20033;-73
2021/12/20 04:57:24;;;;;;;25.40;4.20;;;;;;;;;;5039968;28;20494;-73
2021/12/20 04:59:50;;;;;;;31.48;4.82;;;;;;;;;;5040817;28;20029;-72
2021/12/20 05:02:16;;;;;;;32.30;4.45;;;;;;;;;;5037036;28;20032;-74
2021/12/20 05:04:42;;;;;;;29.80;4.57;;;;;;;;;;5039653;28;20025;-73
2021/12/20 05:07:09;;;;;;;30.13;3.35;;;;;;;;;;5043100;28;20051;-72
2021/12/20 05:09:40;;;;;;;35.75;6.32;;;;;;;;;;5042858;28;20033;-72
2021/12/20 05:12:11;;;;;;;24.40;3.80;;;;;;;;;;5039467;28;20041;-73
2021/12/20 05:14:40;;;;;;;24.67;4.38;;;;;;;;;;5040527;28;20029;-74
2021/12/20 05:17:06;;;;;;;27.95;3.70;;;;;;;;;;5038247;28;20052;-74
2021/12/20 05:19:33;;;;;;;26.35;4.25;;;;;;;;;;5053200;28;20041;-74
2021/12/20 05:21:59;;;;;;;24.63;3.00;;;;;;;;;;5040786;28;20037;-75
2021/12/20 05:24:25;;;;;;;19.50;2.97;;;;;;;;;;5043283;28;20102;-74
2021/12/20 05:26:51;;;;;;;28.50;3.92;;;;;;;;;;5040987;28;20419;-74
2021/12/20 05:29:17;;;;;;;28.35;4.13;;;;;;;;;;5040760;28;20029;-74
2021/12/20 05:31:43;;;;;;;22.95;3.53;;;;;;;;;;5041361;28;20112;-74
2021/12/20 05:34:09;;;;;;;34.83;3.80;;;;;;;;;;5054123;28;20041;-74
2021/12/20 05:36:36;;;;;;;28.77;4.00;;;;;;;;;;5041716;28;20037;-74
2021/12/20 05:39:02;;;;;;;45.97;5.82;;;;;;;;;;5039040;28;20497;-74
2021/12/20 05:41:28;;;;;;;32.35;3.85;;;;;;;;;;5041182;28;20039;-74
2021/12/20 05:43:54;;;;;;;25.52;4.22;;;;;;;;;;5025159;28;20033;-74
2021/12/20 05:46:20;;;;;;;18.58;3.10;;;;;;;;;;5040247;28;20049;-72
2021/12/20 05:48:46;;;;;;;21.23;3.70;;;;;;;;;;5040774;28;20089;-75
2021/12/20 05:51:12;;;;;;;25.30;4.60;;;;;;;;;;5038120;28;20032;-73
2021/12/20 05:53:39;;;;;;;23.88;3.17;;;;;;;;;;5037750;28;20447;-73
2021/12/20 05:56:05;;;;;;;30.92;3.15;;;;;;;;;;5041082;28;20430;-74
2021/12/20 05:58:31;;;;;;;25.42;5.43;;;;;;;;;;5041157;28;20041;-73
2021/12/20 06:00:57;;;;;;;23.90;3.45;;;;;;;;;;5032707;28;20026;-73
2021/12/20 06:03:24;;;;;;;18.98;3.08;;;;;;;;;;5040402;28;20108;-72
2021/12/20 06:05:50;;;;;;;25.75;4.70;;;;;;;;;;5040054;28;20025;-74
2021/12/20 06:08:16;;;;;;;24.25;4.82;;;;;;;;;;5036049;28;20034;-74
2021/12/20 06:10:42;;;;;;;30.33;4.20;;;;;;;;;;5037930;28;20092;-74
2021/12/20 06:13:08;;;;;;;31.10;5.35;;;;;;;;;;5040196;28;20025;-74
2021/12/20 06:15:34;;;;;;;25.30;4.53;;;;;;;;;;5040596;28;20090;-74
2021/12/20 06:18:00;;;;;;;32.55;4.13;;;;;;;;;;5036367;28;20525;-74
2021/12/20 06:20:26;;;;;;;33.58;4.43;;;;;;;;;;5037749;28;20025;-73
2021/12/20 06:22:53;;;;;;;31.27;3.60;;;;;;;;;;5040750;28;20029;-73
2021/12/20 06:25:19;;;;;;;30.80;4.43;;;;;;;;;;5037616;28;20021;-73
2021/12/20 06:27:47;;;;;;;26.83;4.57;;;;;;;;;;5034096;28;20025;-75
2021/12/20 06:30:14;;;;;;;36.53;5.85;;;;;;;;;;5032783;28;20169;-75
2021/12/20 06:32:42;;;;;;;25.35;4.18;;;;;;;;;;5041731;28;20062;-76
2021/12/20 06:35:13;;;;;;;30.63;3.88;;;;;;;;;;5057211;28;20032;-75
2021/12/20 06:37:38;;;;;;;;;;;;;;;;;;5037847;28;20029;-73
2021/12/20 06:40:05;;;;;;;28.35;3.95;;;;;;;;;;5037542;28;19997;-74
2021/12/20 06:42:31;;;;;;;26.60;3.35;;;;;;;;;;5039183;28;20123;-73
2021/12/20 06:44:57;;;;;;;23.77;3.95;;;;;;;;;;5035016;28;20416;-73
2021/12/20 06:47:24;;;;;;;29.42;3.75;;;;;;;;;;5034211;28;20561;-73
2021/12/20 06:49:50;;;;;;;33.67;4.38;;;;;;;;;;5040397;28;20545;-74
2021/12/20 06:52:16;;;;;;;32.28;5.72;;;;;;;;;;5039989;28;20056;-74
2021/12/20 06:54:42;;;;;;;31.63;4.97;;;;;;;;;;5042709;28;20040;-75
2021/12/20 06:57:08;;;;;;;21.98;3.78;;;;;;;;;;5034028;28;20056;-73
2021/12/20 06:59:34;;;;;;;20.63;2.80;;;;;;;;;;5042182;28;20036;-74
2021/12/20 07:02:00;;;;;;;30.23;3.30;;;;;;;;;;5037982;28;20026;-74
2021/12/20 07:04:26;;;;;;;23.83;4.20;;;;;;;;;;5035587;28;20032;-74
2021/12/20 07:06:53;;;;;;;24.63;3.97;;;;;;;;;;5034332;28;20021;-74
2021/12/20 07:09:19;;;;;;;25.05;3.67;;;;;;;;;;5053250;28;20029;-74
2021/12/20 07:11:45;;;;;;;20.60;4.63;;;;;;;;;;5037091;28;20041;-75
2021/12/20 07:14:11;;;;;;;28.60;3.65;;;;;;;;;;5044922;28;20391;-75
2021/12/20 07:16:40;;;;;;;34.45;4.38;;;;;;;;;;5040418;28;20044;-74
2021/12/20 07:19:06;;;;;;;26.35;3.35;;;;;;;;;;5034086;28;21914;-73
2021/12/20 07:21:32;;;;;;;27.83;3.38;;;;;;;;;;5040360;28;20119;-76
2021/12/20 07:23:58;;;;;;;34.03;5.30;;;;;;;;;;5039290;28;20119;-74
2021/12/20 07:26:24;;;;;;;31.80;4.22;;;;;;;;;;5031385;28;20108;-74
2021/12/20 07:28:50;;;;;;;24.00;3.67;;;;;;;;;;5037409;28;20044;-74
2021/12/20 07:31:16;;;;;;;38.58;5.00;;;;;;;;;;5038855;28;20128;-75
2021/12/20 07:33:44;;;;;;;18.83;3.67;;;;;;;;;;5039843;28;20686;-75
2021/12/20 07:36:11;;;;;;;28.08;3.92;;;;;;;;;;5040937;28;20449;-73
2021/12/20 07:38:37;;;;;;;27.25;4.50;;;;;;;;;;5042850;28;20055;-75
2021/12/20 07:41:03;;;;;;;25.98;3.75;;;;;;;;;;5036497;28;20037;-74
2021/12/20 07:43:30;;;;;;;27.40;3.40;;;;;;;;;;5041091;28;20111;-73
2021/12/20 07:45:56;;;;;;;27.10;3.83;;;;;;;;;;5039046;28;20060;-75
2021/12/20 07:48:22;;;;;;;22.17;4.50;;;;;;;;;;5040235;28;20550;-73
2021/12/20 07:50:48;;;;;;;18.95;2.95;;;;;;;;;;5039907;28;20028;-74
2021/12/20 07:53:15;;;;;;;17.25;3.22;;;;;;;;;;5036827;28;20379;-74
2021/12/20 07:55:41;;;;;;;24.60;3.50;;;;;;;;;;5040699;28;20021;-75
2021/12/20 07:58:07;;;;;;;24.48;4.30;;;;;;;;;;5042688;28;20442;-73
2021/12/20 08:00:34;;;;;;;35.03;5.20;;;;;;;;;;5037266;28;20028;-74
2021/12/20 08:03:00;;;;;;;27.88;3.30;;;;;;;;;;5038849;28;20067;-74
2021/12/20 08:05:27;;;;;;;19.10;3.70;;;;;;;;;;5051636;28;20495;-75
2021/12/20 08:07:53;;;;;;;20.65;3.05;;;;;;;;;;5023250;28;20037;-73
2021/12/20 08:10:20;;;;;;;26.92;3.95;;;;;;;;;;5037049;28;20135;-75
2021/12/20 08:12:47;;;;;;;26.55;3.38;;;;;;;;;;5032085;28;20033;-74
2021/12/20 08:15:13;;;;;;;23.98;3.03;;;;;;;;;;5036697;28;20041;-74
2021/12/20 08:17:40;;;;;;;19.25;2.90;;;;;;;;;;5037356;28;20354;-75
2021/12/20 08:20:07;;;;;;;22.02;3.42;;;;;;;;;;5030647;28;20144;-74
2021/12/20 08:22:33;;;;;;;28.17;3.80;;;;;;;;;;5033996;28;21105;-74
2021/12/20 08:24:59;;;;;;;12.88;2.53;;;;;;;;;;5038856;28;20106;-74
2021/12/20 08:27:25;;;;;;;12.48;2.88;;;;;;;;;;5036758;28;20558;-73
2021/12/20 08:29:51;;;;;;;9.90;2.60;;;;;;;;;;5036640;28;20513;-74
2021/12/20 08:32:17;;;;;;;15.65;2.78;;;;;;;;;;5034060;28;20063;-73
2021/12/20 08:34:43;;;;;;;14.52;2.92;;;;;;;;;;5039690;28;20060;-73
2021/12/20 08:37:09;;;;;;;26.90;3.85;;;;;;;;;;5034492;28;20056;-73
2021/12/20 08:39:36;;;;;;;25.90;5.38;;;;;;;;;;5036346;28;20033;-75
2021/12/20 08:42:03;;;;;;;22.75;2.92;;;;;;;;;;5032950;28;20029;-74
2021/12/20 08:44:31;;;;;;;19.90;3.13;;;;;;;;;;5030748;28;20133;-74
2021/12/20 08:46:58;;;;;;;23.00;3.53;;;;;;;;;;5041614;28;20051;-75
2021/12/20 08:49:24;;;;;;;20.25;4.28;;;;;;;;;;5037584;28;20029;-72
2021/12/20 08:51:50;;;;;;;18.15;2.88;;;;;;;;;;5039909;28;20128;-75
2021/12/20 08:54:17;;;;;;;29.27;4.07;;;;;;;;;;5051910;28;20036;-75
2021/12/20 08:56:43;;;;;;;22.48;4.30;;;;;;;;;;5032457;28;20037;-73
2021/12/20 08:59:09;;;;;;;25.77;3.92;;;;;;;;;;5041409;28;20490;-73
2021/12/20 09:01:35;;;;;;;20.40;3.45;;;;;;;;;;5037266;28;20040;-73
2021/12/20 09:04:20;;;;;;;22.13;3.67;;;;;;;;;;5017742;28;20052;-73
2021/12/20 09:06:48;;;;;;;22.23;3.45;;;;;;;;;;5032474;28;20027;-73
2021/12/20 09:09:15;;;;;;;19.30;4.18;;;;;;;;;;5034234;28;20037;-73
2021/12/20 09:11:43;;;;;;;22.35;4.70;;;;;;;;;;5044511;28;20025;-73
2021/12/20 09:14:09;;;;;;;24.30;3.28;;;;;;;;;;5038008;28;20494;-73
2021/12/20 09:16:35;;;;;;;17.65;3.38;;;;;;;;;;5028928;28;20037;-73
2021/12/20 09:19:02;;;;;;;24.02;4.38;;;;;;;;;;5027739;28;20076;-74
2021/12/20 09:21:28;;;;;;;19.33;3.65;;;;;;;;;;5035540;28;20394;-73
2021/12/20 09:23:56;;;;;;;20.05;4.20;;;;;;;;;;5035503;28;20138;-73
2021/12/20 09:26:22;;;;;;;13.48;3.45;;;;;;;;;;5031999;28;20024;-73
2021/12/20 09:28:48;;;;;;;19.10;3.47;;;;;;;;;;5036784;28;20076;-73
2021/12/20 09:31:14;;;;;;;17.65;3.92;;;;;;;;;;5039335;28;20029;-73
2021/12/20 09:33:40;;;;;;;16.90;4.40;;;;;;;;;;5042658;28;20092;-73
2021/12/20 09:36:07;;;;;;;20.27;2.97;;;;;;;;;;5035703;28;20055;-73
2021/12/20 09:38:34;;;;;;;19.98;2.85;;;;;;;;;;5037374;28;20055;-73
2021/12/20 09:43:33;;;;;;;16.58;2.88;;;;;;;;;;5039881;28;20040;-73
2021/12/20 09:45:59;;;;;;;23.75;4.15;;;;;;;;;;5024887;28;20041;-73
2021/12/20 09:48:25;;;;;;;26.83;3.10;;;;;;;;;;5036020;28;20579;-73
2021/12/20 09:50:52;;;;;;;21.35;3.00;;;;;;;;;;5037535;28;20080;-73
2021/12/20 09:53:18;;;;;;;17.83;3.13;;;;;;;;;;5035823;28;20033;-73
2021/12/20 09:55:48;;;;;;;30.48;4.75;;;;;;;;;;5037842;28;20120;-73
2021/12/20 09:58:14;;;;;;;18.25;2.95;;;;;;;;;;5037117;28;20056;-73
2021/12/20 10:00:40;;;;;;;20.83;4.45;;;;;;;;;;5033417;28;20064;-73
2021/12/20 10:03:06;;;;;;;16.73;3.13;;;;;;;;;;5057149;28;20040;-74
2021/12/20 10:05:33;;;;;;;16.38;3.33;;;;;;;;;;5037910;28;20021;-73
2021/12/20 10:08:08;;;;;;;17.98;3.35;;;;;;;;;;5039245;28;20123;-73
2021/12/20 10:10:39;;;;;;;18.63;3.65;;;;;;;;;;5035923;28;20048;-72
2021/12/20 10:13:05;;;;;;;19.90;3.78;;;;;;;;;;5035596;28;20733;-73
2021/12/20 10:15:39;;;;;;;16.30;4.22;;;;;;;;;;5040940;28;20452;-74
2021/12/20 10:18:11;;;;;;;17.98;3.47;;;;;;;;;;5034395;28;20466;-74
2021/12/20 10:20:37;;;;;;;19.85;3.40;;;;;;;;;;5042687;28;20117;-73
2021/12/20 10:23:09;;;;;;;16.00;4.07;;;;;;;;;;5042135;28;20028;-76
2021/12/20 10:25:36;;;;;;;19.65;3.55;;;;;;;;;;5043756;28;20025;-75
2021/12/20 10:28:06;;;;;;;16.73;3.03;;;;;;;;;;5042222;28;20029;-76
2021/12/20 10:30:33;;;;;;;17.23;2.60;;;;;;;;;;5040975;28;20458;-75
2021/12/20 10:33:01;;;;;;;17.20;3.40;;;;;;;;;;5041389;28;20029;-74
2021/12/20 10:35:32;;;;;;;12.75;3.03;;;;;;;;;;5041301;28;20482;-74
2021/12/20 10:38:00;;;;;;;23.92;3.75;;;;;;;;;;5041139;28;20036;-74
2021/12/20 10:40:26;;;;;;;16.42;3.22;;;;;;;;;;5041106;28;20020;-74
2021/12/20 10:42:53;;;;;;;16.60;2.55;;;;;;;;;;5040775;28;20100;-74
2021/12/20 10:45:20;;;;;;;24.70;2.95;;;;;;;;;;5042907;28;20021;-75
2021/12/20 10:47:50;;;;;;;16.58;2.30;;;;;;;;;;5041266;28;20045;-74
2021/12/20 10:50:19;;;;;;;16.08;2.85;;;;;;;;;;5040807;28;20032;-73
2021/12/20 10:52:45;;;;;;;11.93;2.50;;;;;;;;;;5041445;28;20106;-73
2021/12/20 10:55:11;;;;;;;17.20;2.35;;;;;;;;;;5028194;28;20055;-74
2021/12/20 10:57:38;;;;;;;15.85;2.17;;;;;;;;;;5045047;28;20082;-74
2021/12/20 11:00:22;;;;;;;11.48;2.28;;;;;;;;;;5038844;28;20037;-75
2021/12/20 11:05:37;;;;;;;11.10;2.53;;;;;;;;;;5038376;28;20406;-74
2021/12/20 11:11:09;;;;;;;11.18;3.25;;;;;;;;;;5043881;28;20040;-74
2021/12/20 11:13:38;;;;;;;16.45;2.50;;;;;;;;;;5039845;28;20524;-74
2021/12/20 11:16:26;;;;;;;11.68;2.70;;;;;;;;;;5041107;28;20028;-74
2021/12/20 11:19:22;;;;;;;14.27;2.92;;;;;;;;;;5043119;28;20562;-73
2021/12/20 11:21:54;;;;;;;14.75;3.00;;;;;;;;;;5038562;28;20043;-74
2021/12/20 11:24:22;;;;;;;14.27;3.08;;;;;;;;;;5041919;28;20049;-74
2021/12/20 11:26:50;;;;;;;16.95;3.47;;;;;;;;;;5039573;28;20028;-73
2021/12/20 11:29:16;;;;;;;12.63;2.70;;;;;;;;;;5044078;28;20033;-74
2021/12/20 11:31:43;;;;;;;12.25;2.55;;;;;;;;;;5040339;28;20025;-75
2021/12/20 11:34:12;;;;;;;14.15;3.42;;;;;;;;;;5045239;28;20040;-74
2021/12/20 11:36:38;;;;;;;14.48;3.05;;;;;;;;;;5042618;28;20045;-74
2021/12/20 11:39:05;;;;;;;13.07;2.50;;;;;;;;;;5034693;28;20124;-74
2021/12/20 11:41:31;;;;;;;26.75;3.58;;;;;;;;;;5039738;28;20030;-74
2021/12/20 11:43:58;;;;;;;9.18;2.03;;;;;;;;;;5039906;28;20020;-74
2021/12/20 11:46:29;;;;;;;12.60;3.67;;;;;;;;;;5043462;28;20061;-74
2021/12/20 11:48:57;;;;;;;10.48;1.75;;;;;;;;;;5040112;28;20045;-74
2021/12/20 11:51:23;;;;;;;8.68;1.55;;;;;;;;;;5036697;28;20135;-74
2021/12/20 11:53:50;;;;;;;10.07;1.45;;;;;;;;;;5039846;28;20037;-74
2021/12/20 11:56:16;;;;;;;11.02;1.60;;;;;;;;;;5039140;28;20029;-74
2021/12/20 11:58:46;;;;;;;9.95;1.95;;;;;;;;;;5039871;28;20132;-74
2021/12/20 12:01:16;;;;;;;12.73;2.05;;;;;;;;;;5039488;28;20112;-74
2021/12/20 12:03:52;;;;;;;12.70;3.42;;;;;;;;;;5043168;28;20029;-72
2021/12/20 12:06:26;;;;;;;8.52;1.90;;;;;;;;;;5043795;28;20029;-72
2021/12/20 12:08:52;;;;;;;12.52;2.10;;;;;;;;;;5037924;28;20029;-72
2021/12/20 12:11:19;;;;;;;19.33;2.58;;;;;;;;;;5040547;28;20390;-72
2021/12/20 12:14:00;;;;;;;21.17;2.55;;;;;;;;;;5039791;28;20052;-72
2021/12/20 12:16:47;;;;;;;16.63;3.13;;;;;;;;;;5032696;28;20085;-73
2021/12/20 12:19:13;;;;;;;10.38;2.15;;;;;;;;;;5040067;28;20036;-73
2021/12/20 12:21:41;;;;;;;11.48;1.70;;;;;;;;;;5035450;28;20060;-73
2021/12/20 12:24:09;;;;;;;13.35;2.00;;;;;;;;;;5039007;28;20033;-72
2021/12/20 12:26:47;;;;;;;8.77;1.83;;;;;;;;;;5036966;28;20051;-73
2021/12/20 12:29:18;;;;;;;15.43;2.63;;;;;;;;;;5036108;28;20031;-72
2021/12/20 12:31:50;;;;;;;11.68;2.47;;;;;;;;;;5034360;28;20033;-72
2021/12/20 12:34:17;;;;;;;13.57;2.72;;;;;;;;;;5041745;28;20049;-73
2021/12/20 12:36:43;;;;;;;12.25;2.47;;;;;;;;;;5037132;28;20049;-73
2021/12/20 12:39:12;;;;;;;20.67;2.50;;;;;;;;;;5035382;28;20117;-73
2021/12/20 12:41:49;;;;;;;10.45;2.40;;;;;;;;;;5036687;28;20124;-72
2021/12/20 12:44:19;;;;;;;10.45;1.63;;;;;;;;;;5039045;28;20033;-72
2021/12/20 12:46:47;;;;;;;15.60;2.28;;;;;;;;;;5036242;28;20140;-73
2021/12/20 12:49:19;;;;;;;15.05;1.60;;;;;;;;;;5036516;28;20049;-74
2021/12/20 12:51:46;;;;;;;14.88;2.05;;;;;;;;;;5033905;28;20032;-72
2021/12/20 12:54:31;;;;;;;15.02;1.88;;;;;;;;;;5037576;28;20048;-73
2021/12/20 12:57:10;;;;;;;8.95;1.75;;;;;;;;;;5036342;28;20029;-73
2021/12/20 12:59:55;;;;;;;11.00;1.88;;;;;;;;;;5038710;28;20025;-72
2021/12/20 13:02:25;;;;;;;14.73;3.08;;;;;;;;;;5038845;28;20127;-73
2021/12/20 13:04:52;;;;;;;12.07;2.55;;;;;;;;;;5036528;28;20025;-73
2021/12/20 13:07:19;;;;;;;11.00;1.63;;;;;;;;;;5044306;28;20029;-73
2021/12/20 13:09:47;;;;;;;12.82;1.90;;;;;;;;;;5035788;28;20029;-73
2021/12/20 13:12:23;;;;;;;12.52;2.00;;;;;;;;;;5034741;28;20041;-73
2021/12/20 13:14:53;;;;;;;11.68;1.83;;;;;;;;;;5038267;28;20063;-73
2021/12/20 13:17:30;;;;;;;11.80;1.77;;;;;;;;;;5030725;28;20029;-73
2021/12/20 13:23:05;;;;;;;15.88;2.33;;;;;;;;;;5039920;28;20033;-72
2021/12/20 13:25:46;;;;;;;12.30;1.55;;;;;;;;;;5038775;28;20104;-72
2021/12/20 13:28:19;;;;;;;8.80;1.85;;;;;;;;;;5042426;28;20495;-72
2021/12/20 13:30:47;;;;;;;12.70;1.80;;;;;;;;;;5032690;28;20450;-72
2021/12/20 13:33:13;;;;;;;9.68;1.75;;;;;;;;;;5036927;28;20044;-72
2021/12/20 13:35:40;;;;;;;9.70;1.85;;;;;;;;;;5038433;28;20032;-74
2021/12/20 13:38:14;;;;;;;15.20;2.22;;;;;;;;;;5039841;28;20752;-72
2021/12/20 13:40:57;;;;;;;12.95;2.80;;;;;;;;;;5034718;28;20040;-72
2021/12/20 13:43:31;;;;;;;23.08;2.08;;;;;;;;;;5039345;28;20500;-72
2021/12/20 13:46:07;;;;;;;10.90;2.47;;;;;;;;;;5048743;28;20508;-73
2021/12/20 13:48:33;;;;;;;12.50;1.73;;;;;;;;;;5042241;28;20095;-72
2021/12/20 13:50:59;;;;;;;12.18;2.97;;;;;;;;;;5061782;28;20037;-72
2021/12/20 13:53:32;;;;;;;12.13;2.70;;;;;;;;;;5040462;28;20120;-72
2021/12/20 13:55:59;;;;;;;17.10;2.58;;;;;;;;;;5043758;28;20030;-73
2021/12/20 13:58:26;;;;;;;8.50;1.95;;;;;;;;;;5042967;28;20033;-73
2021/12/20 14:00:52;;;;;;;8.18;1.67;;;;;;;;;;5043472;28;20526;-73
2021/12/20 14:03:18;;;;;;;13.27;2.15;;;;;;;;;;5043800;28;20053;-74
2021/12/20 14:05:44;;;;;;;14.50;1.90;;;;;;;;;;5043065;28;20033;-74
2021/12/20 14:08:20;;;;;;;25.08;2.67;;;;;;;;;;5043283;28;20437;-73
2021/12/20 14:10:46;;;;;;;16.05;2.00;;;;;;;;;;5046575;28;20020;-72
2021/12/20 14:13:17;;;;;;;18.90;2.20;;;;;;;;;;5043831;28;20104;-73
2021/12/20 14:15:44;;;;;;;14.43;2.20;;;;;;;;;;5036244;28;20422;-73
2021/12/20 14:18:20;;;;;;;19.83;3.10;;;;;;;;;;5044371;28;20026;-72
2021/12/20 14:20:59;;;;;;;11.77;2.67;;;;;;;;;;5038513;28;20040;-72
2021/12/20 14:23:25;;;;;;;9.52;1.98;;;;;;;;;;5042421;28;20029;-73
2021/12/20 14:26:01;;;;;;;13.43;2.22;;;;;;;;;;5045753;28;20460;-73
2021/12/20 14:28:28;;;;;;;10.52;2.47;;;;;;;;;;5049526;28;20021;-73
2021/12/20 14:30:56;;;;;;;14.13;2.03;;;;;;;;;;5038356;28;20126;-73
2021/12/20 14:33:42;;;;;;;13.02;2.05;;;;;;;;;;5043924;28;20030;-73
2021/12/20 14:36:09;;;;;;;16.80;2.00;;;;;;;;;;5025606;28;20037;-73
2021/12/20 14:38:43;;;;;;;12.88;1.83;;;;;;;;;;5040208;28;20029;-72
2021/12/20 14:41:16;;;;;;;10.50;1.58;;;;;;;;;;5039546;28;20045;-72
2021/12/20 14:43:44;;;;;;;11.38;1.98;;;;;;;;;;5043556;28;20017;-72
2021/12/20 14:46:11;;;;;;;11.98;2.47;;;;;;;;;;5039314;28;20064;-74
2021/12/20 14:48:42;;;;;;;11.85;2.08;;;;;;;;;;5044103;28;20494;-73
2021/12/20 14:51:20;;;;;;;11.80;1.83;;;;;;;;;;5039261;28;20095;-73
2021/12/20 14:53:47;;;;;;;15.55;2.33;;;;;;;;;;5042745;28;20116;-73
2021/12/20 14:56:13;;;;;;;20.85;2.10;;;;;;;;;;5038814;28;20035;-73
2021/12/20 14:58:39;;;;;;;10.20;2.15;;;;;;;;;;5031639;28;20087;-73